sensor_id;sensor_type;location;lat;lon;timestamp;temperature;humidity
10089;DHT22;51898;49.864;8.550;2024-02-23T00:00:08;8.10;73.50
10089;DHT22;51898;49.864;8.550;2024-02-23T00:03:12;8.00;72.90
10089;DHT22;51898;49.864;8.550;2024-02-23T00:06:14;8.00;72.70
10089;DHT22;51898;49.864;8.550;2024-02-23T00:09:16;7.90;72.30
10089;DHT22;51898;49.864;8.550;2024-02-23T00:12:18;7.90;71.60
10089;DHT22;51898;49.864;8.550;2024-02-23T00:15:20;7.90;71.90
10089;DHT22;51898;49.864;8.550;2024-02-23T00:18:21;7.80;71.80
10089;DHT22;51898;49.864;8.550;2024-02-23T00:21:23;7.80;72.70
10089;DHT22;51898;49.864;8.550;2024-02-23T00:24:25;7.80;73.00
10089;DHT22;51898;49.864;8.550;2024-02-23T00:27:27;7.80;73.30
10089;DHT22;51898;49.864;8.550;2024-02-23T00:30:29;7.70;73.90
10089;DHT22;51898;49.864;8.550;2024-02-23T00:33:30;7.70;74.00
10089;DHT22;51898;49.864;8.550;2024-02-23T00:36:32;7.70;74.90
10089;DHT22;51898;49.864;8.550;2024-02-23T00:39:34;7.50;76.50
10089;DHT22;51898;49.864;8.550;2024-02-23T00:42:36;7.50;78.10
10089;DHT22;51898;49.864;8.550;2024-02-23T00:45:37;7.40;79.20
10089;DHT22;51898;49.864;8.550;2024-02-23T00:48:39;7.30;79.20
10089;DHT22;51898;49.864;8.550;2024-02-23T00:51:41;7.30;80.00
10089;DHT22;51898;49.864;8.550;2024-02-23T00:54:42;7.10;80.10
10089;DHT22;51898;49.864;8.550;2024-02-23T00:57:44;7.10;80.70
10089;DHT22;51898;49.864;8.550;2024-02-23T01:00:47;7.00;80.40
10089;DHT22;51898;49.864;8.550;2024-02-23T01:03:48;6.90;79.90
10089;DHT22;51898;49.864;8.550;2024-02-23T01:06:50;6.90;80.30
10089;DHT22;51898;49.864;8.550;2024-02-23T01:09:52;6.90;79.90
10089;DHT22;51898;49.864;8.550;2024-02-23T01:12:54;6.80;80.10
10089;DHT22;51898;49.864;8.550;2024-02-23T01:15:55;6.80;79.20
10089;DHT22;51898;49.864;8.550;2024-02-23T01:18:57;6.80;78.60
10089;DHT22;51898;49.864;8.550;2024-02-23T01:21:59;6.80;79.10
10089;DHT22;51898;49.864;8.550;2024-02-23T01:25:02;6.70;79.70
10089;DHT22;51898;49.864;8.550;2024-02-23T01:28:04;6.60;80.90
10089;DHT22;51898;49.864;8.550;2024-02-23T01:31:08;6.50;81.80
10089;DHT22;51898;49.864;8.550;2024-02-23T01:34:12;6.40;82.50
10089;DHT22;51898;49.864;8.550;2024-02-23T01:37:14;6.30;82.80
10089;DHT22;51898;49.864;8.550;2024-02-23T01:40:16;6.20;83.40
10089;DHT22;51898;49.864;8.550;2024-02-23T01:43:18;6.20;83.70
10089;DHT22;51898;49.864;8.550;2024-02-23T01:46:19;6.20;83.50
10089;DHT22;51898;49.864;8.550;2024-02-23T01:49:21;6.10;83.30
10089;DHT22;51898;49.864;8.550;2024-02-23T01:52:23;6.10;83.00
10089;DHT22;51898;49.864;8.550;2024-02-23T01:55:25;6.10;83.30
10089;DHT22;51898;49.864;8.550;2024-02-23T01:58:28;6.10;82.00
10089;DHT22;51898;49.864;8.550;2024-02-23T02:01:31;6.10;82.20
10089;DHT22;51898;49.864;8.550;2024-02-23T02:04:33;6.10;81.90
10089;DHT22;51898;49.864;8.550;2024-02-23T02:07:35;6.10;81.10
10089;DHT22;51898;49.864;8.550;2024-02-23T02:10:37;6.10;80.50
10089;DHT22;51898;49.864;8.550;2024-02-23T02:13:38;6.10;79.00
10089;DHT22;51898;49.864;8.550;2024-02-23T02:16:40;6.10;77.90
10089;DHT22;51898;49.864;8.550;2024-02-23T02:19:47;6.10;77.50
10089;DHT22;51898;49.864;8.550;2024-02-23T02:22:49;6.00;77.60
10089;DHT22;51898;49.864;8.550;2024-02-23T02:25:58;5.90;77.80
10089;DHT22;51898;49.864;8.550;2024-02-23T02:29:00;5.90;78.30
10089;DHT22;51898;49.864;8.550;2024-02-23T02:32:02;5.80;78.40
10089;DHT22;51898;49.864;8.550;2024-02-23T02:35:04;5.80;78.70
10089;DHT22;51898;49.864;8.550;2024-02-23T02:38:06;5.70;79.30
10089;DHT22;51898;49.864;8.550;2024-02-23T02:41:08;5.60;79.50
10089;DHT22;51898;49.864;8.550;2024-02-23T02:44:10;5.60;79.40
10089;DHT22;51898;49.864;8.550;2024-02-23T02:47:14;5.50;79.30
10089;DHT22;51898;49.864;8.550;2024-02-23T02:50:16;5.40;79.60
10089;DHT22;51898;49.864;8.550;2024-02-23T02:53:18;5.40;79.50
10089;DHT22;51898;49.864;8.550;2024-02-23T02:56:19;5.40;79.40
10089;DHT22;51898;49.864;8.550;2024-02-23T02:59:23;5.30;79.70
10089;DHT22;51898;49.864;8.550;2024-02-23T03:02:29;5.30;80.50
10089;DHT22;51898;49.864;8.550;2024-02-23T03:05:31;5.30;82.60
10089;DHT22;51898;49.864;8.550;2024-02-23T03:08:33;5.40;83.40
10089;DHT22;51898;49.864;8.550;2024-02-23T03:11:35;5.30;83.50
10089;DHT22;51898;49.864;8.550;2024-02-23T03:14:37;5.40;83.30
10089;DHT22;51898;49.864;8.550;2024-02-23T03:17:41;5.40;83.00
10089;DHT22;51898;49.864;8.550;2024-02-23T03:20:43;5.40;82.90
10089;DHT22;51898;49.864;8.550;2024-02-23T03:23:45;5.50;82.90
10089;DHT22;51898;49.864;8.550;2024-02-23T03:26:47;5.50;83.30
10089;DHT22;51898;49.864;8.550;2024-02-23T03:29:49;5.50;83.80
10089;DHT22;51898;49.864;8.550;2024-02-23T03:32:50;5.40;83.60
10089;DHT22;51898;49.864;8.550;2024-02-23T03:35:52;5.40;84.00
10089;DHT22;51898;49.864;8.550;2024-02-23T03:38:54;5.40;84.00
10089;DHT22;51898;49.864;8.550;2024-02-23T03:41:56;5.40;84.00
10089;DHT22;51898;49.864;8.550;2024-02-23T03:44:57;5.40;83.80
10089;DHT22;51898;49.864;8.550;2024-02-23T03:48:00;5.40;84.00
10089;DHT22;51898;49.864;8.550;2024-02-23T03:51:04;5.40;83.70
10089;DHT22;51898;49.864;8.550;2024-02-23T03:54:06;5.40;83.50
10089;DHT22;51898;49.864;8.550;2024-02-23T03:57:08;5.40;83.60
10089;DHT22;51898;49.864;8.550;2024-02-23T04:00:10;5.30;83.60
10089;DHT22;51898;49.864;8.550;2024-02-23T04:03:13;5.20;83.10
10089;DHT22;51898;49.864;8.550;2024-02-23T04:06:14;5.20;82.80
10089;DHT22;51898;49.864;8.550;2024-02-23T04:09:16;5.10;82.80
10089;DHT22;51898;49.864;8.550;2024-02-23T04:12:18;5.10;83.90
10089;DHT22;51898;49.864;8.550;2024-02-23T04:15:21;5.00;84.30
10089;DHT22;51898;49.864;8.550;2024-02-23T04:18:22;5.00;84.90
10089;DHT22;51898;49.864;8.550;2024-02-23T04:21:24;4.90;85.60
10089;DHT22;51898;49.864;8.550;2024-02-23T04:24:26;4.80;86.10
10089;DHT22;51898;49.864;8.550;2024-02-23T04:27:28;4.80;86.40
10089;DHT22;51898;49.864;8.550;2024-02-23T04:30:29;4.70;86.80
10089;DHT22;51898;49.864;8.550;2024-02-23T04:33:31;4.60;87.10
10089;DHT22;51898;49.864;8.550;2024-02-23T04:36:34;4.60;87.20
10089;DHT22;51898;49.864;8.550;2024-02-23T04:39:36;4.60;87.10
10089;DHT22;51898;49.864;8.550;2024-02-23T04:42:39;4.60;87.50
10089;DHT22;51898;49.864;8.550;2024-02-23T04:45:41;4.50;87.70
10089;DHT22;51898;49.864;8.550;2024-02-23T04:48:42;4.50;88.00
10089;DHT22;51898;49.864;8.550;2024-02-23T04:51:44;4.50;87.90
10089;DHT22;51898;49.864;8.550;2024-02-23T04:54:46;4.50;87.70
10089;DHT22;51898;49.864;8.550;2024-02-23T04:57:48;4.50;87.50
10089;DHT22;51898;49.864;8.550;2024-02-23T05:00:49;4.50;87.70
10089;DHT22;51898;49.864;8.550;2024-02-23T05:03:51;4.60;87.60
10089;DHT22;51898;49.864;8.550;2024-02-23T05:06:53;4.50;87.90
10089;DHT22;51898;49.864;8.550;2024-02-23T05:09:55;4.50;88.00
10089;DHT22;51898;49.864;8.550;2024-02-23T05:12:57;4.50;88.20
10089;DHT22;51898;49.864;8.550;2024-02-23T05:15:59;4.50;88.10
10089;DHT22;51898;49.864;8.550;2024-02-23T05:19:01;4.50;88.10
10089;DHT22;51898;49.864;8.550;2024-02-23T05:22:03;4.50;88.00
10089;DHT22;51898;49.864;8.550;2024-02-23T05:25:05;4.60;87.80
10089;DHT22;51898;49.864;8.550;2024-02-23T05:28:07;4.60;87.60
10089;DHT22;51898;49.864;8.550;2024-02-23T05:31:09;4.70;87.50
10089;DHT22;51898;49.864;8.550;2024-02-23T05:34:11;4.70;87.00
10089;DHT22;51898;49.864;8.550;2024-02-23T05:37:13;4.80;86.50
10089;DHT22;51898;49.864;8.550;2024-02-23T05:40:14;4.90;86.00
10089;DHT22;51898;49.864;8.550;2024-02-23T05:43:16;4.90;85.70
10089;DHT22;51898;49.864;8.550;2024-02-23T05:46:18;4.90;85.50
10089;DHT22;51898;49.864;8.550;2024-02-23T05:49:20;4.90;85.70
10089;DHT22;51898;49.864;8.550;2024-02-23T05:52:22;4.90;85.70
10089;DHT22;51898;49.864;8.550;2024-02-23T05:55:23;4.90;85.90
10089;DHT22;51898;49.864;8.550;2024-02-23T05:58:26;4.90;86.10
10089;DHT22;51898;49.864;8.550;2024-02-23T06:01:27;4.80;86.60
10089;DHT22;51898;49.864;8.550;2024-02-23T06:04:29;4.80;86.60
10089;DHT22;51898;49.864;8.550;2024-02-23T06:07:31;4.80;85.80
10089;DHT22;51898;49.864;8.550;2024-02-23T06:10:33;5.00;85.40
10089;DHT22;51898;49.864;8.550;2024-02-23T06:13:35;5.00;85.60
10089;DHT22;51898;49.864;8.550;2024-02-23T06:16:37;5.10;85.00
10089;DHT22;51898;49.864;8.550;2024-02-23T06:19:39;5.20;84.40
10089;DHT22;51898;49.864;8.550;2024-02-23T06:22:40;5.20;84.20
10089;DHT22;51898;49.864;8.550;2024-02-23T06:25:42;5.20;83.70
10089;DHT22;51898;49.864;8.550;2024-02-23T06:28:47;5.30;83.40
10089;DHT22;51898;49.864;8.550;2024-02-23T06:31:50;5.40;83.20
10089;DHT22;51898;49.864;8.550;2024-02-23T06:34:52;5.40;82.50
10089;DHT22;51898;49.864;8.550;2024-02-23T06:37:53;5.50;81.80
10089;DHT22;51898;49.864;8.550;2024-02-23T06:40:56;5.50;80.80
10089;DHT22;51898;49.864;8.550;2024-02-23T06:43:58;5.60;80.60
10089;DHT22;51898;49.864;8.550;2024-02-23T06:46:59;5.60;80.00
10089;DHT22;51898;49.864;8.550;2024-02-23T06:50:01;5.60;80.30
10089;DHT22;51898;49.864;8.550;2024-02-23T06:53:05;5.70;80.00
10089;DHT22;51898;49.864;8.550;2024-02-23T06:56:08;5.60;79.50
10089;DHT22;51898;49.864;8.550;2024-02-23T06:59:10;5.70;79.60
10089;DHT22;51898;49.864;8.550;2024-02-23T07:02:11;5.70;78.80
10089;DHT22;51898;49.864;8.550;2024-02-23T07:05:13;5.70;78.60
10089;DHT22;51898;49.864;8.550;2024-02-23T07:08:16;5.70;77.90
10089;DHT22;51898;49.864;8.550;2024-02-23T07:11:18;5.80;78.00
10089;DHT22;51898;49.864;8.550;2024-02-23T07:14:20;5.90;76.60
10089;DHT22;51898;49.864;8.550;2024-02-23T07:17:23;5.90;77.10
10089;DHT22;51898;49.864;8.550;2024-02-23T07:20:25;5.90;76.80
10089;DHT22;51898;49.864;8.550;2024-02-23T07:23:27;6.00;76.20
10089;DHT22;51898;49.864;8.550;2024-02-23T07:26:29;6.00;76.80
10089;DHT22;51898;49.864;8.550;2024-02-23T07:29:31;6.00;76.20
10089;DHT22;51898;49.864;8.550;2024-02-23T07:32:33;6.00;76.10
10089;DHT22;51898;49.864;8.550;2024-02-23T07:35:35;5.90;76.20
10089;DHT22;51898;49.864;8.550;2024-02-23T07:38:37;5.90;76.30
10089;DHT22;51898;49.864;8.550;2024-02-23T07:41:38;5.80;75.90
10089;DHT22;51898;49.864;8.550;2024-02-23T07:44:40;5.80;76.20
10089;DHT22;51898;49.864;8.550;2024-02-23T07:47:42;5.80;76.40
10089;DHT22;51898;49.864;8.550;2024-02-23T07:50:44;5.70;76.60
10089;DHT22;51898;49.864;8.550;2024-02-23T07:53:46;5.70;76.40
10089;DHT22;51898;49.864;8.550;2024-02-23T07:56:48;5.80;76.70
10089;DHT22;51898;49.864;8.550;2024-02-23T07:59:49;6.10;76.70
10089;DHT22;51898;49.864;8.550;2024-02-23T08:02:51;6.30;76.70
10089;DHT22;51898;49.864;8.550;2024-02-23T08:05:53;6.60;75.80
10089;DHT22;51898;49.864;8.550;2024-02-23T08:08:54;6.80;74.70
10089;DHT22;51898;49.864;8.550;2024-02-23T08:11:56;6.90;74.40
10089;DHT22;51898;49.864;8.550;2024-02-23T08:14:58;6.90;74.70
10089;DHT22;51898;49.864;8.550;2024-02-23T08:18:00;6.90;74.20
10089;DHT22;51898;49.864;8.550;2024-02-23T08:21:02;6.90;73.70
10089;DHT22;51898;49.864;8.550;2024-02-23T08:24:05;6.90;73.90
10089;DHT22;51898;49.864;8.550;2024-02-23T08:27:06;6.90;73.60
10089;DHT22;51898;49.864;8.550;2024-02-23T08:30:08;6.80;73.60
10089;DHT22;51898;49.864;8.550;2024-02-23T08:33:12;6.70;73.90
10089;DHT22;51898;49.864;8.550;2024-02-23T08:36:14;6.70;74.40
10089;DHT22;51898;49.864;8.550;2024-02-23T08:39:16;6.80;74.00
10089;DHT22;51898;49.864;8.550;2024-02-23T08:42:17;6.90;73.90
10089;DHT22;51898;49.864;8.550;2024-02-23T08:45:19;6.90;73.90
10089;DHT22;51898;49.864;8.550;2024-02-23T08:48:21;7.00;73.30
10089;DHT22;51898;49.864;8.550;2024-02-23T08:51:23;7.10;74.20
10089;DHT22;51898;49.864;8.550;2024-02-23T08:54:24;7.10;73.50
10089;DHT22;51898;49.864;8.550;2024-02-23T08:57:27;7.10;73.90
10089;DHT22;51898;49.864;8.550;2024-02-23T09:00:29;7.30;73.40
10089;DHT22;51898;49.864;8.550;2024-02-23T09:03:31;7.40;72.90
10089;DHT22;51898;49.864;8.550;2024-02-23T09:06:33;7.50;72.40
10089;DHT22;51898;49.864;8.550;2024-02-23T09:09:39;7.50;72.50
10089;DHT22;51898;49.864;8.550;2024-02-23T09:12:41;7.60;72.50
10089;DHT22;51898;49.864;8.550;2024-02-23T09:15:43;7.60;72.90
10089;DHT22;51898;49.864;8.550;2024-02-23T09:18:45;7.70;71.40
10089;DHT22;51898;49.864;8.550;2024-02-23T09:21:47;7.70;71.30
10089;DHT22;51898;49.864;8.550;2024-02-23T09:24:48;7.80;70.90
10089;DHT22;51898;49.864;8.550;2024-02-23T09:27:50;7.80;69.90
10089;DHT22;51898;49.864;8.550;2024-02-23T09:30:52;7.90;71.00
10089;DHT22;51898;49.864;8.550;2024-02-23T09:33:57;7.90;71.10
10089;DHT22;51898;49.864;8.550;2024-02-23T09:36:59;8.00;70.00
10089;DHT22;51898;49.864;8.550;2024-02-23T09:40:02;8.00;69.70
10089;DHT22;51898;49.864;8.550;2024-02-23T09:43:06;8.00;69.70
10089;DHT22;51898;49.864;8.550;2024-02-23T09:46:09;8.00;69.70
10089;DHT22;51898;49.864;8.550;2024-02-23T09:49:11;8.10;69.70
10089;DHT22;51898;49.864;8.550;2024-02-23T09:52:13;8.20;69.30
10089;DHT22;51898;49.864;8.550;2024-02-23T09:55:15;8.20;68.80
10089;DHT22;51898;49.864;8.550;2024-02-23T09:58:18;8.20;68.60
10089;DHT22;51898;49.864;8.550;2024-02-23T10:01:28;8.10;69.30
10089;DHT22;51898;49.864;8.550;2024-02-23T10:04:32;8.10;69.50
10089;DHT22;51898;49.864;8.550;2024-02-23T10:07:34;8.20;69.10
10089;DHT22;51898;49.864;8.550;2024-02-23T10:10:37;8.20;68.60
10089;DHT22;51898;49.864;8.550;2024-02-23T10:13:41;8.30;68.70
10089;DHT22;51898;49.864;8.550;2024-02-23T10:16:43;8.40;68.80
10089;DHT22;51898;49.864;8.550;2024-02-23T10:19:44;8.40;68.90
10089;DHT22;51898;49.864;8.550;2024-02-23T10:22:47;8.40;69.80
10089;DHT22;51898;49.864;8.550;2024-02-23T10:25:49;8.50;70.30
10089;DHT22;51898;49.864;8.550;2024-02-23T10:28:50;8.50;70.60
10089;DHT22;51898;49.864;8.550;2024-02-23T10:31:55;8.50;69.20
10089;DHT22;51898;49.864;8.550;2024-02-23T10:35:00;8.50;68.70
10089;DHT22;51898;49.864;8.550;2024-02-23T10:38:08;8.40;69.00
10089;DHT22;51898;49.864;8.550;2024-02-23T10:41:13;8.50;69.00
10089;DHT22;51898;49.864;8.550;2024-02-23T10:44:17;8.70;68.90
10089;DHT22;51898;49.864;8.550;2024-02-23T10:47:21;8.90;68.20
10089;DHT22;51898;49.864;8.550;2024-02-23T10:50:24;8.90;68.00
10089;DHT22;51898;49.864;8.550;2024-02-23T10:53:28;9.00;67.70
10089;DHT22;51898;49.864;8.550;2024-02-23T10:56:30;9.00;68.20
10089;DHT22;51898;49.864;8.550;2024-02-23T10:59:32;9.00;68.20
10089;DHT22;51898;49.864;8.550;2024-02-23T11:02:38;9.10;69.20
10089;DHT22;51898;49.864;8.550;2024-02-23T11:05:41;8.90;71.60
10089;DHT22;51898;49.864;8.550;2024-02-23T11:08:44;8.70;73.60
10089;DHT22;51898;49.864;8.550;2024-02-23T11:11:56;8.50;73.80
10089;DHT22;51898;49.864;8.550;2024-02-23T11:15:00;8.40;74.50
10089;DHT22;51898;49.864;8.550;2024-02-23T11:18:03;8.50;75.90
10089;DHT22;51898;49.864;8.550;2024-02-23T11:21:05;8.40;73.30
10089;DHT22;51898;49.864;8.550;2024-02-23T11:24:15;8.20;74.60
10089;DHT22;51898;49.864;8.550;2024-02-23T11:27:17;8.20;75.20
10089;DHT22;51898;49.864;8.550;2024-02-23T11:30:20;8.40;75.40
10089;DHT22;51898;49.864;8.550;2024-02-23T11:33:28;8.60;73.80
10089;DHT22;51898;49.864;8.550;2024-02-23T11:36:34;8.80;72.90
10089;DHT22;51898;49.864;8.550;2024-02-23T11:39:38;9.00;73.40
10089;DHT22;51898;49.864;8.550;2024-02-23T11:42:42;9.20;71.40
10089;DHT22;51898;49.864;8.550;2024-02-23T11:45:47;9.20;71.30
10089;DHT22;51898;49.864;8.550;2024-02-23T11:48:49;9.20;73.10
10089;DHT22;51898;49.864;8.550;2024-02-23T11:51:58;9.10;73.40
10089;DHT22;51898;49.864;8.550;2024-02-23T11:54:59;9.20;72.20
10089;DHT22;51898;49.864;8.550;2024-02-23T11:58:01;9.20;72.00
10089;DHT22;51898;49.864;8.550;2024-02-23T12:01:12;9.20;71.10
10089;DHT22;51898;49.864;8.550;2024-02-23T12:04:14;9.00;71.20
10089;DHT22;51898;49.864;8.550;2024-02-23T12:07:16;8.90;71.50
10089;DHT22;51898;49.864;8.550;2024-02-23T12:10:18;8.90;73.00
10089;DHT22;51898;49.864;8.550;2024-02-23T12:13:20;8.70;75.30
10089;DHT22;51898;49.864;8.550;2024-02-23T12:16:22;8.60;75.10
10089;DHT22;51898;49.864;8.550;2024-02-23T12:19:24;8.50;76.80
10089;DHT22;51898;49.864;8.550;2024-02-23T12:22:26;8.60;78.10
10089;DHT22;51898;49.864;8.550;2024-02-23T12:25:28;8.70;76.40
10089;DHT22;51898;49.864;8.550;2024-02-23T12:28:30;8.90;77.00
10089;DHT22;51898;49.864;8.550;2024-02-23T12:31:32;8.90;76.70
10089;DHT22;51898;49.864;8.550;2024-02-23T12:34:34;8.90;76.40
10089;DHT22;51898;49.864;8.550;2024-02-23T12:37:37;9.10;78.50
10089;DHT22;51898;49.864;8.550;2024-02-23T12:40:42;9.30;76.00
10089;DHT22;51898;49.864;8.550;2024-02-23T12:43:44;9.40;75.60
10089;DHT22;51898;49.864;8.550;2024-02-23T12:46:49;9.40;73.70
10089;DHT22;51898;49.864;8.550;2024-02-23T12:49:51;9.40;75.80
10089;DHT22;51898;49.864;8.550;2024-02-23T12:52:52;9.50;74.00
10089;DHT22;51898;49.864;8.550;2024-02-23T12:55:54;9.60;74.90
10089;DHT22;51898;49.864;8.550;2024-02-23T12:58:56;9.60;73.70
10089;DHT22;51898;49.864;8.550;2024-02-23T13:01:58;9.70;74.30
10089;DHT22;51898;49.864;8.550;2024-02-23T13:05:00;9.80;72.20
10089;DHT22;51898;49.864;8.550;2024-02-23T13:08:04;9.90;73.30
10089;DHT22;51898;49.864;8.550;2024-02-23T13:11:06;10.00;71.80
10089;DHT22;51898;49.864;8.550;2024-02-23T13:14:08;9.80;71.00
10089;DHT22;51898;49.864;8.550;2024-02-23T13:17:11;9.80;71.20
10089;DHT22;51898;49.864;8.550;2024-02-23T13:20:13;9.90;71.40
10089;DHT22;51898;49.864;8.550;2024-02-23T13:23:15;10.10;71.10
10089;DHT22;51898;49.864;8.550;2024-02-23T13:26:18;10.40;71.20
10089;DHT22;51898;49.864;8.550;2024-02-23T13:29:19;10.50;69.10
10089;DHT22;51898;49.864;8.550;2024-02-23T13:32:22;10.50;68.10
10089;DHT22;51898;49.864;8.550;2024-02-23T13:35:24;10.40;66.80
10089;DHT22;51898;49.864;8.550;2024-02-23T13:38:26;10.30;68.00
10089;DHT22;51898;49.864;8.550;2024-02-23T13:41:28;10.20;68.00
10089;DHT22;51898;49.864;8.550;2024-02-23T13:44:30;10.20;67.90
10089;DHT22;51898;49.864;8.550;2024-02-23T13:47:32;10.20;69.00
10089;DHT22;51898;49.864;8.550;2024-02-23T13:50:34;10.10;68.60
10089;DHT22;51898;49.864;8.550;2024-02-23T13:53:41;10.20;68.90
10089;DHT22;51898;49.864;8.550;2024-02-23T13:56:43;10.00;66.90
10089;DHT22;51898;49.864;8.550;2024-02-23T13:59:45;10.00;66.60
10089;DHT22;51898;49.864;8.550;2024-02-23T14:02:47;9.90;66.60
10089;DHT22;51898;49.864;8.550;2024-02-23T14:05:50;9.80;67.60
10089;DHT22;51898;49.864;8.550;2024-02-23T14:08:52;9.50;68.30
10089;DHT22;51898;49.864;8.550;2024-02-23T14:11:53;9.40;69.00
10089;DHT22;51898;49.864;8.550;2024-02-23T14:14:56;9.30;70.10
10089;DHT22;51898;49.864;8.550;2024-02-23T14:17:58;9.20;71.70
10089;DHT22;51898;49.864;8.550;2024-02-23T14:21:00;9.30;74.30
10089;DHT22;51898;49.864;8.550;2024-02-23T14:24:03;9.40;75.70
10089;DHT22;51898;49.864;8.550;2024-02-23T14:27:05;9.40;74.60
10089;DHT22;51898;49.864;8.550;2024-02-23T14:30:07;9.40;75.50
10089;DHT22;51898;49.864;8.550;2024-02-23T14:33:09;9.30;75.10
10089;DHT22;51898;49.864;8.550;2024-02-23T14:36:11;9.10;74.30
10089;DHT22;51898;49.864;8.550;2024-02-23T14:39:13;8.90;75.30
10089;DHT22;51898;49.864;8.550;2024-02-23T14:42:15;8.80;75.90
10089;DHT22;51898;49.864;8.550;2024-02-23T14:45:17;8.70;76.20
10089;DHT22;51898;49.864;8.550;2024-02-23T14:48:18;8.60;76.90
10089;DHT22;51898;49.864;8.550;2024-02-23T14:51:20;8.80;78.30
10089;DHT22;51898;49.864;8.550;2024-02-23T14:54:22;9.10;79.10
10089;DHT22;51898;49.864;8.550;2024-02-23T14:57:24;9.50;78.90
10089;DHT22;51898;49.864;8.550;2024-02-23T15:00:26;9.70;77.60
10089;DHT22;51898;49.864;8.550;2024-02-23T15:03:28;9.80;76.30
10089;DHT22;51898;49.864;8.550;2024-02-23T15:06:30;9.80;76.00
10089;DHT22;51898;49.864;8.550;2024-02-23T15:09:32;9.80;76.00
10089;DHT22;51898;49.864;8.550;2024-02-23T15:12:35;9.70;75.10
10089;DHT22;51898;49.864;8.550;2024-02-23T15:15:37;9.70;74.80
10089;DHT22;51898;49.864;8.550;2024-02-23T15:18:42;9.50;75.40
10089;DHT22;51898;49.864;8.550;2024-02-23T15:21:44;9.60;76.10
10089;DHT22;51898;49.864;8.550;2024-02-23T15:24:46;9.50;76.60
10089;DHT22;51898;49.864;8.550;2024-02-23T15:27:51;9.60;75.10
10089;DHT22;51898;49.864;8.550;2024-02-23T15:30:55;9.70;74.00
10089;DHT22;51898;49.864;8.550;2024-02-23T15:33:56;9.50;73.90
10089;DHT22;51898;49.864;8.550;2024-02-23T15:36:59;9.30;74.50
10089;DHT22;51898;49.864;8.550;2024-02-23T15:40:01;9.30;76.00
10089;DHT22;51898;49.864;8.550;2024-02-23T15:43:05;9.30;75.90
10089;DHT22;51898;49.864;8.550;2024-02-23T15:46:07;9.30;74.70
10089;DHT22;51898;49.864;8.550;2024-02-23T15:49:09;9.30;73.90
10089;DHT22;51898;49.864;8.550;2024-02-23T15:52:31;9.30;73.90
10089;DHT22;51898;49.864;8.550;2024-02-23T15:55:33;9.10;73.80
10089;DHT22;51898;49.864;8.550;2024-02-23T15:58:35;9.10;74.60
10089;DHT22;51898;49.864;8.550;2024-02-23T16:01:37;9.00;73.80
10089;DHT22;51898;49.864;8.550;2024-02-23T16:04:40;9.10;74.40
10089;DHT22;51898;49.864;8.550;2024-02-23T16:07:42;9.00;73.80
10089;DHT22;51898;49.864;8.550;2024-02-23T16:10:43;8.80;73.70
10089;DHT22;51898;49.864;8.550;2024-02-23T16:13:45;8.70;74.30
10089;DHT22;51898;49.864;8.550;2024-02-23T16:16:47;8.60;74.40
10089;DHT22;51898;49.864;8.550;2024-02-23T16:19:49;8.50;74.30
10089;DHT22;51898;49.864;8.550;2024-02-23T16:22:51;8.30;74.90
10089;DHT22;51898;49.864;8.550;2024-02-23T16:25:54;8.20;75.00
10089;DHT22;51898;49.864;8.550;2024-02-23T16:28:56;8.10;75.30
10089;DHT22;51898;49.864;8.550;2024-02-23T16:31:59;7.90;75.60
10089;DHT22;51898;49.864;8.550;2024-02-23T16:35:01;7.80;76.40
10089;DHT22;51898;49.864;8.550;2024-02-23T16:38:04;7.70;76.70
10089;DHT22;51898;49.864;8.550;2024-02-23T16:41:05;7.70;77.50
10089;DHT22;51898;49.864;8.550;2024-02-23T16:44:07;7.70;77.50
10089;DHT22;51898;49.864;8.550;2024-02-23T16:47:11;7.60;78.00
10089;DHT22;51898;49.864;8.550;2024-02-23T16:50:13;7.60;77.80
10089;DHT22;51898;49.864;8.550;2024-02-23T16:53:14;7.50;78.20
10089;DHT22;51898;49.864;8.550;2024-02-23T16:56:16;7.60;78.00
10089;DHT22;51898;49.864;8.550;2024-02-23T16:59:18;7.50;77.70
10089;DHT22;51898;49.864;8.550;2024-02-23T17:02:20;7.50;77.70
10089;DHT22;51898;49.864;8.550;2024-02-23T17:05:22;7.40;77.70
10089;DHT22;51898;49.864;8.550;2024-02-23T17:08:24;7.40;77.70
10089;DHT22;51898;49.864;8.550;2024-02-23T17:11:26;7.30;78.10
10089;DHT22;51898;49.864;8.550;2024-02-23T17:14:28;7.30;77.90
10089;DHT22;51898;49.864;8.550;2024-02-23T17:17:29;7.30;77.90
10089;DHT22;51898;49.864;8.550;2024-02-23T17:20:31;7.20;77.90
10089;DHT22;51898;49.864;8.550;2024-02-23T17:23:33;7.20;78.10
10089;DHT22;51898;49.864;8.550;2024-02-23T17:26:35;7.20;78.20
10089;DHT22;51898;49.864;8.550;2024-02-23T17:29:37;7.20;78.50
10089;DHT22;51898;49.864;8.550;2024-02-23T17:32:39;7.20;78.80
10089;DHT22;51898;49.864;8.550;2024-02-23T17:35:41;7.10;79.00
10089;DHT22;51898;49.864;8.550;2024-02-23T17:38:43;7.10;78.90
10089;DHT22;51898;49.864;8.550;2024-02-23T17:41:45;7.20;79.10
10089;DHT22;51898;49.864;8.550;2024-02-23T17:44:47;7.10;79.00
10089;DHT22;51898;49.864;8.550;2024-02-23T17:47:48;7.10;79.00
10089;DHT22;51898;49.864;8.550;2024-02-23T17:50:51;7.20;79.20
10089;DHT22;51898;49.864;8.550;2024-02-23T17:53:53;7.20;79.40
10089;DHT22;51898;49.864;8.550;2024-02-23T17:56:59;7.20;79.50
10089;DHT22;51898;49.864;8.550;2024-02-23T18:00:01;7.20;79.20
10089;DHT22;51898;49.864;8.550;2024-02-23T18:03:04;7.10;79.20
10089;DHT22;51898;49.864;8.550;2024-02-23T18:06:06;7.10;79.50
10089;DHT22;51898;49.864;8.550;2024-02-23T18:09:08;7.10;79.60
10089;DHT22;51898;49.864;8.550;2024-02-23T18:12:10;7.10;79.60
10089;DHT22;51898;49.864;8.550;2024-02-23T18:15:12;7.10;79.60
10089;DHT22;51898;49.864;8.550;2024-02-23T18:18:14;7.10;79.50
10089;DHT22;51898;49.864;8.550;2024-02-23T18:21:21;7.20;79.50
10089;DHT22;51898;49.864;8.550;2024-02-23T18:24:23;7.20;79.20
10089;DHT22;51898;49.864;8.550;2024-02-23T18:27:25;7.10;79.00
10089;DHT22;51898;49.864;8.550;2024-02-23T18:30:27;7.10;79.00
10089;DHT22;51898;49.864;8.550;2024-02-23T18:33:29;7.00;79.30
10089;DHT22;51898;49.864;8.550;2024-02-23T18:36:31;7.00;80.50
10089;DHT22;51898;49.864;8.550;2024-02-23T18:39:33;6.90;80.80
10089;DHT22;51898;49.864;8.550;2024-02-23T18:42:36;6.90;81.10
10089;DHT22;51898;49.864;8.550;2024-02-23T18:45:38;6.70;81.70
10089;DHT22;51898;49.864;8.550;2024-02-23T18:48:39;6.70;81.90
10089;DHT22;51898;49.864;8.550;2024-02-23T18:51:42;6.60;81.90
10089;DHT22;51898;49.864;8.550;2024-02-23T18:54:44;6.60;82.40
10089;DHT22;51898;49.864;8.550;2024-02-23T18:57:46;6.60;83.00
10089;DHT22;51898;49.864;8.550;2024-02-23T19:00:48;6.50;83.50
10089;DHT22;51898;49.864;8.550;2024-02-23T19:03:49;6.50;84.20
10089;DHT22;51898;49.864;8.550;2024-02-23T19:06:51;6.40;84.80
10089;DHT22;51898;49.864;8.550;2024-02-23T19:09:54;6.30;85.70
10089;DHT22;51898;49.864;8.550;2024-02-23T19:12:57;6.30;85.90
10089;DHT22;51898;49.864;8.550;2024-02-23T19:15:58;6.30;86.30
10089;DHT22;51898;49.864;8.550;2024-02-23T19:19:00;6.30;86.40
10089;DHT22;51898;49.864;8.550;2024-02-23T19:22:07;6.40;86.20
10089;DHT22;51898;49.864;8.550;2024-02-23T19:25:09;6.40;85.70
10089;DHT22;51898;49.864;8.550;2024-02-23T19:28:12;6.50;85.20